地図

経路データ

SID SEASON NUMBER BASIN SUBBASIN NAME ISO_TIME NATURE LAT LON WMO_WIND WMO_PRES WMO_AGENCY TRACK_TYPE DIST2LAND LANDFALL IFLAG USA_AGENCY USA_ATCF_ID USA_LAT USA_LON USA_RECORD USA_STATUS USA_WIND USA_PRES USA_SSHS USA_R34_NE USA_R34_SE USA_R34_SW USA_R34_NW USA_R50_NE USA_R50_SE USA_R50_SW USA_R50_NW USA_R64_NE USA_R64_SE USA_R64_SW USA_R64_NW USA_POCI USA_ROCI USA_RMW USA_EYE TOKYO_LAT TOKYO_LON TOKYO_GRADE TOKYO_WIND TOKYO_PRES TOKYO_R50_DIR TOKYO_R50_LONG TOKYO_R50_SHORT TOKYO_R30_DIR TOKYO_R30_LONG TOKYO_R30_SHORT TOKYO_LAND CMA_LAT CMA_LON CMA_CAT CMA_WIND CMA_PRES HKO_LAT HKO_LON HKO_CAT HKO_WIND HKO_PRES NEWDELHI_LAT NEWDELHI_LON NEWDELHI_GRADE NEWDELHI_WIND NEWDELHI_PRES NEWDELHI_CI NEWDELHI_DP NEWDELHI_POCI REUNION_LAT REUNION_LON REUNION_TYPE REUNION_WIND REUNION_PRES REUNION_TNUM REUNION_CI REUNION_RMW REUNION_R34_NE REUNION_R34_SE REUNION_R34_SW REUNION_R34_NW REUNION_R50_NE REUNION_R50_SE REUNION_R50_SW REUNION_R50_NW REUNION_R64_NE REUNION_R64_SE REUNION_R64_SW REUNION_R64_NW BOM_LAT BOM_LON BOM_TYPE BOM_WIND BOM_PRES BOM_TNUM BOM_CI BOM_RMW BOM_R34_NE BOM_R34_SE BOM_R34_SW BOM_R34_NW BOM_R50_NE BOM_R50_SE BOM_R50_SW BOM_R50_NW BOM_R64_NE BOM_R64_SE BOM_R64_SW BOM_R64_NW BOM_ROCI BOM_POCI BOM_EYE BOM_POS_METHOD BOM_PRES_METHOD NADI_LAT NADI_LON NADI_CAT NADI_WIND NADI_PRES WELLINGTON_LAT WELLINGTON_LON WELLINGTON_WIND WELLINGTON_PRES DS824_LAT DS824_LON DS824_STAGE DS824_WIND DS824_PRES TD9636_LAT TD9636_LON TD9636_STAGE TD9636_WIND TD9636_PRES TD9635_LAT TD9635_LON TD9635_WIND TD9635_PRES TD9635_ROCI NEUMANN_LAT NEUMANN_LON NEUMANN_CLASS NEUMANN_WIND NEUMANN_PRES MLC_LAT MLC_LON MLC_CLASS MLC_WIND MLC_PRES USA_GUST BOM_GUST BOM_GUST_PER REUNION_GUST REUNION_GUST_PER USA_SEAHGT USA_SEARAD_NE USA_SEARAD_SE USA_SEARAD_SW USA_SEARAD_NW STORM_SPEED STORM_DIR
1995276N13124 1995 75 WP MM NOT_NAMED 1995-10-03 06:00:00 NR 12.9000 123.600 main 0 0 O_____________ jtwc_wp WP231995 12.9000 123.600 15 -1 5 271
1995276N13124 1995 75 WP MM NOT_NAMED 1995-10-03 09:00:00 NR 12.9026 123.320 main 11 11 P_____________ WP231995 12.9026 123.320 15 -1 6 270
1995276N13124 1995 75 WP MM NOT_NAMED 1995-10-03 12:00:00 NR 12.9000 123.000 main 34 33 O_____________ jtwc_wp WP231995 12.9000 123.000 15 -1 7 269
1995276N13124 1995 75 WP MM NOT_NAMED 1995-10-03 15:00:00 NR 12.8923 122.602 main 33 33 P_____________ WP231995 12.8923 122.602 15 -1 9 270
1995276N13124 1995 75 WP MM NOT_NAMED 1995-10-03 18:00:00 NR 12.9000 122.100 main 63 0 O_____________ jtwc_wp WP231995 12.9000 122.100 15 -1 11 272
1995276N13124 1995 75 WP MM NOT_NAMED 1995-10-03 21:00:00 NR 12.9351 121.472 main 0 0 P_____________ WP231995 12.9351 121.472 15 -1 13 275
1995276N13124 1995 75 WP MM NOT_NAMED 1995-10-04 00:00:00 NR 13.0000 120.800 main 0 0 O_____________ jtwc_wp WP231995 13.0000 120.800 15 -1 13 277
1995276N13124 1995 75 WP MM NOT_NAMED 1995-10-04 03:00:00 NR 13.0923 120.193 main 34 34 P_____________ WP231995 13.0923 120.193 15 -1 12 280
1995276N13124 1995 75 WP MM NOT_NAMED 1995-10-04 06:00:00 NR 13.2000 119.600 main 79 79 O_____________ jtwc_wp WP231995 13.2000 119.600 15 -1 12 280
1995276N13124 1995 75 WP MM NOT_NAMED 1995-10-04 09:00:00 NR 13.2924 119.000 main 141 141 P_____________ WP231995 13.2924 119.000 17 -1 12 280
1995276N13124 1995 75 WP MM NOT_NAMED 1995-10-04 12:00:00 NR 13.4000 118.400 main 205 205 O_____________ jtwc_wp WP231995 13.4000 118.400 20 -1 12 281
1995276N13124 1995 75 WP MM NOT_NAMED 1995-10-04 15:00:00 NR 13.5274 117.792 main 270 270 P_____________ WP231995 13.5274 117.792 20 -1 12 284
1995276N13124 1995 75 WP MM NOT_NAMED 1995-10-04 18:00:00 NR 13.7000 117.200 main 336 336 O_____________ jtwc_wp WP231995 13.7000 117.200 20 -1 12 290
1995276N13124 1995 75 WP MM NOT_NAMED 1995-10-04 21:00:00 NR 13.9350 116.620 main 390 387 P_____________ WP231995 13.9350 116.620 20 -1 12 295
1995276N13124 1995 75 WP MM NOT_NAMED 1995-10-05 00:00:00 NR 14.2000 116.100 main 430 430 O_____________ jtwc_wp WP231995 14.2000 116.100 20 -1 10 300
1995276N13124 1995 75 WP MM NOT_NAMED 1995-10-05 03:00:00 NR 14.4647 115.692 main 460 460 P_____________ WP231995 14.4647 115.692 20 -1 9 303
1995276N13124 1995 75 WP MM NOT_NAMED 1995-10-05 06:00:00 NR 14.7000 115.300 main 493 493 O_____________ jtwc_wp WP231995 14.7000 115.300 20 -1 9 297
1995276N13124 1995 75 WP MM NOT_NAMED 1995-10-05 09:00:00 NR 14.8872 114.853 main 529 529 P_____________ WP231995 14.8872 114.853 22 -1 10 287
1995276N13124 1995 75 WP MM NOT_NAMED 1995-10-05 12:00:00 NR 15.0000 114.300 main 552 479 O_____________ jtwc_wp WP231995 15.0000 114.300 25 -1 12 277
1995276N13124 1995 75 WP MM NOT_NAMED 1995-10-05 15:00:00 NR 15.0377 113.572 main 479 396 P_____________ WP231995 15.0377 113.572 25 -1 15 270
1995276N13124 1995 75 WP MM NOT_NAMED 1995-10-05 18:00:00 NR 15.0000 112.800 main 396 331 O_____________ jtwc_wp WP231995 15.0000 112.800 25 -1 14 264
1995276N13124 1995 75 WP MM NOT_NAMED 1995-10-05 21:00:00 NR 14.9068 112.172 main 331 257 P_____________ WP231995 14.9068 112.172 25 -1 13 261
1995276N13124 1995 75 WP MM NOT_NAMED 1995-10-06 00:00:00 NR 14.8000 111.500 main 257 161 O_____________ jtwc_wp WP231995 14.8000 111.500 25 -1 15 263
1995276N13124 1995 75 WP MM NOT_NAMED 1995-10-06 03:00:00 NR 14.7205 110.592 main 161 64 P_____________ WP231995 14.7205 110.592 25 -1 17 267
1995276N13124 1995 75 WP MM NOT_NAMED 1995-10-06 06:00:00 NR 14.7000 109.700 main 64 0 O_____________ jtwc_wp WP231995 14.7000 109.700 25 -1 15 273
1995276N13124 1995 75 WP MM NOT_NAMED 1995-10-06 09:00:00 NR 14.7922 109.003 main 0 0 P_____________ WP231995 14.7922 109.003 22 -1 12 280
1995276N13124 1995 75 WP MM NOT_NAMED 1995-10-06 12:00:00 NR 14.9000 108.500 main 0 0 O_____________ jtwc_wp WP231995 14.9000 108.500 20 -1 8 280
1995276N13124 1995 75 WP MM NOT_NAMED 1995-10-06 15:00:00 NR 14.9222 108.212 main 0 0 P_____________ WP231995 14.9222 108.212 20 -1 5 270
1995276N13124 1995 75 WP MM NOT_NAMED 1995-10-06 18:00:00 NR 14.9000 108.000 main 0 0 O_____________ jtwc_wp WP231995 14.9000 108.000 20 -1 5 263
1995276N13124 1995 75 WP MM NOT_NAMED 1995-10-06 21:00:00 NR 14.8575 107.665 main 0 0 P_____________ WP231995 14.8575 107.665 17 -1 7 262
1995276N13124 1995 75 WP MM NOT_NAMED 1995-10-07 00:00:00 NR 14.8000 107.300 main 0 0 O_____________ jtwc_wp WP231995 14.8000 107.300 15 -1 7 262
1995276N13124 1995 75 WP MM NOT_NAMED 1995-10-07 03:00:00 NR 14.7574 106.950 main 0 0 P_____________ WP231995 14.7574 106.950 12 -1 7 262
1995276N13124 1995 75 WP MM NOT_NAMED 1995-10-07 06:00:00 NR 14.7000 106.600 main 0 0 O_____________ jtwc_wp WP231995 14.7000 106.600 10 -1 7 258
1995276N13124 1995 75 WP MM NOT_NAMED 1995-10-07 09:00:00 NR 14.6101 106.250 main 0 0 P_____________ WP231995 14.6101 106.250 10 -1 7 254
1995276N13124 1995 75 WP MM NOT_NAMED 1995-10-07 12:00:00 NR 14.5000 105.900 main 0 O_____________ jtwc_wp WP231995 14.5000 105.900 10 -1 7 252

デジタル台風データ・検索

IBTrACS Databaseについて

本データベースは、米国NOAAが公開する1842年以降の世界の熱帯低気圧のベストトラックデータアーカイブInternational Best Track Archive for Climate Stewardship (IBTrACS)を、ウェブで閲覧しやすい形式に変換したものです。

最終更新日:2021-12-03